sensor_id;sensor_type;location;lat;lon;timestamp;P1;durP1;ratioP1;P2;durP2;ratioP2
37411;SDS011;23278;52.110;6.050;2022-10-30T00:00:28;7.28;;;2.70;;
37411;SDS011;23278;52.110;6.050;2022-10-30T00:02:54;7.03;;;3.60;;
37411;SDS011;23278;52.110;6.050;2022-10-30T00:05:20;8.60;;;2.38;;
37411;SDS011;23278;52.110;6.050;2022-10-30T00:07:46;8.43;;;3.47;;
37411;SDS011;23278;52.110;6.050;2022-10-30T00:10:13;5.00;;;1.80;;
37411;SDS011;23278;52.110;6.050;2022-10-30T00:12:39;4.63;;;2.47;;
37411;SDS011;23278;52.110;6.050;2022-10-30T00:15:05;5.90;;;2.70;;
37411;SDS011;23278;52.110;6.050;2022-10-30T00:17:31;4.25;;;1.67;;
37411;SDS011;23278;52.110;6.050;2022-10-30T00:19:57;5.15;;;2.38;;
37411;SDS011;23278;52.110;6.050;2022-10-30T00:22:23;16.33;;;3.33;;
37411;SDS011;23278;52.110;6.050;2022-10-30T00:24:49;5.22;;;2.10;;
37411;SDS011;23278;52.110;6.050;2022-10-30T00:27:15;5.00;;;2.20;;
37411;SDS011;23278;52.110;6.050;2022-10-30T00:29:41;8.88;;;3.38;;
37411;SDS011;23278;52.110;6.050;2022-10-30T00:32:07;7.65;;;2.03;;
37411;SDS011;23278;52.110;6.050;2022-10-30T00:34:33;4.68;;;2.30;;
37411;SDS011;23278;52.110;6.050;2022-10-30T00:36:59;3.75;;;2.03;;
37411;SDS011;23278;52.110;6.050;2022-10-30T00:39:25;7.13;;;3.03;;
37411;SDS011;23278;52.110;6.050;2022-10-30T00:41:51;8.82;;;2.53;;
37411;SDS011;23278;52.110;6.050;2022-10-30T00:49:51;3.83;;;1.98;;
37411;SDS011;23278;52.110;6.050;2022-10-30T00:52:28;3.50;;;2.28;;
37411;SDS011;23278;52.110;6.050;2022-10-30T00:54:58;4.07;;;2.25;;
37411;SDS011;23278;52.110;6.050;2022-10-30T00:57:30;5.57;;;2.00;;
37411;SDS011;23278;52.110;6.050;2022-10-30T00:59:56;7.38;;;2.58;;
37411;SDS011;23278;52.110;6.050;2022-10-30T01:02:23;4.28;;;1.85;;
37411;SDS011;23278;52.110;6.050;2022-10-30T01:04:49;3.17;;;1.83;;
37411;SDS011;23278;52.110;6.050;2022-10-30T01:07:16;7.78;;;3.25;;
37411;SDS011;23278;52.110;6.050;2022-10-30T01:09:42;4.93;;;1.98;;
37411;SDS011;23278;52.110;6.050;2022-10-30T01:12:11;4.63;;;2.40;;
37411;SDS011;23278;52.110;6.050;2022-10-30T01:14:37;7.20;;;2.47;;
37411;SDS011;23278;52.110;6.050;2022-10-30T01:19:53;3.08;;;1.88;;
37411;SDS011;23278;52.110;6.050;2022-10-30T01:28:20;7.55;;;1.98;;
37411;SDS011;23278;52.110;6.050;2022-10-30T01:36:39;5.35;;;1.75;;
37411;SDS011;23278;52.110;6.050;2022-10-30T01:39:14;8.02;;;2.40;;
37411;SDS011;23278;52.110;6.050;2022-10-30T01:41:44;6.00;;;2.67;;
37411;SDS011;23278;52.110;6.050;2022-10-30T01:44:19;3.45;;;2.00;;
37411;SDS011;23278;52.110;6.050;2022-10-30T01:46:58;5.32;;;1.95;;
37411;SDS011;23278;52.110;6.050;2022-10-30T02:00:20;4.18;;;2.17;;
37411;SDS011;23278;52.110;6.050;2022-10-30T02:02:47;4.85;;;2.50;;
37411;SDS011;23278;52.110;6.050;2022-10-30T02:05:19;4.63;;;2.50;;
37411;SDS011;23278;52.110;6.050;2022-10-30T02:08:01;4.72;;;1.73;;
37411;SDS011;23278;52.110;6.050;2022-10-30T02:10:29;3.80;;;2.30;;
37411;SDS011;23278;52.110;6.050;2022-10-30T02:12:57;5.10;;;2.33;;
37411;SDS011;23278;52.110;6.050;2022-10-30T02:15:23;3.30;;;1.92;;
37411;SDS011;23278;52.110;6.050;2022-10-30T02:17:49;4.57;;;2.05;;
37411;SDS011;23278;52.110;6.050;2022-10-30T02:20:17;6.18;;;3.22;;
37411;SDS011;23278;52.110;6.050;2022-10-30T02:22:44;4.90;;;2.20;;
37411;SDS011;23278;52.110;6.050;2022-10-30T02:25:10;7.75;;;2.42;;
37411;SDS011;23278;52.110;6.050;2022-10-30T02:27:36;5.03;;;2.88;;
37411;SDS011;23278;52.110;6.050;2022-10-30T02:30:02;8.00;;;3.55;;
37411;SDS011;23278;52.110;6.050;2022-10-30T02:32:28;5.90;;;2.88;;
37411;SDS011;23278;52.110;6.050;2022-10-30T02:34:54;4.82;;;2.75;;
37411;SDS011;23278;52.110;6.050;2022-10-30T02:37:20;3.50;;;2.30;;
37411;SDS011;23278;52.110;6.050;2022-10-30T02:39:46;3.45;;;2.00;;
37411;SDS011;23278;52.110;6.050;2022-10-30T02:42:13;4.53;;;2.03;;
37411;SDS011;23278;52.110;6.050;2022-10-30T02:44:39;4.68;;;2.55;;
37411;SDS011;23278;52.110;6.050;2022-10-30T02:47:05;7.60;;;3.05;;
37411;SDS011;23278;52.110;6.050;2022-10-30T02:49:31;4.97;;;2.75;;
37411;SDS011;23278;52.110;6.050;2022-10-30T02:51:56;6.10;;;2.30;;
37411;SDS011;23278;52.110;6.050;2022-10-30T02:54:22;6.13;;;2.85;;
37411;SDS011;23278;52.110;6.050;2022-10-30T02:56:48;4.20;;;2.33;;
37411;SDS011;23278;52.110;6.050;2022-10-30T02:59:14;4.80;;;1.95;;
37411;SDS011;23278;52.110;6.050;2022-10-30T03:01:40;6.82;;;2.85;;
37411;SDS011;23278;52.110;6.050;2022-10-30T03:04:07;4.38;;;2.25;;
37411;SDS011;23278;52.110;6.050;2022-10-30T03:06:33;3.45;;;2.25;;
37411;SDS011;23278;52.110;6.050;2022-10-30T03:08:59;6.20;;;2.42;;
37411;SDS011;23278;52.110;6.050;2022-10-30T03:11:25;7.07;;;2.92;;
37411;SDS011;23278;52.110;6.050;2022-10-30T03:13:53;4.60;;;2.05;;
37411;SDS011;23278;52.110;6.050;2022-10-30T03:16:21;4.07;;;2.60;;
37411;SDS011;23278;52.110;6.050;2022-10-30T03:18:49;3.17;;;2.00;;
37411;SDS011;23278;52.110;6.050;2022-10-30T03:21:17;7.15;;;2.22;;
37411;SDS011;23278;52.110;6.050;2022-10-30T03:23:46;3.47;;;2.23;;
37411;SDS011;23278;52.110;6.050;2022-10-30T03:26:14;2.63;;;1.73;;
37411;SDS011;23278;52.110;6.050;2022-10-30T03:28:48;3.30;;;1.92;;
37411;SDS011;23278;52.110;6.050;2022-10-30T03:31:15;7.15;;;2.72;;
37411;SDS011;23278;52.110;6.050;2022-10-30T03:33:42;3.08;;;1.85;;
37411;SDS011;23278;52.110;6.050;2022-10-30T03:36:11;3.33;;;2.63;;
37411;SDS011;23278;52.110;6.050;2022-10-30T03:38:38;3.42;;;2.30;;
37411;SDS011;23278;52.110;6.050;2022-10-30T03:41:04;11.50;;;2.50;;
37411;SDS011;23278;52.110;6.050;2022-10-30T03:43:31;3.40;;;2.13;;
37411;SDS011;23278;52.110;6.050;2022-10-30T03:45:57;5.93;;;2.08;;
37411;SDS011;23278;52.110;6.050;2022-10-30T03:48:24;4.55;;;2.28;;
37411;SDS011;23278;52.110;6.050;2022-10-30T03:50:52;3.05;;;1.90;;
37411;SDS011;23278;52.110;6.050;2022-10-30T03:53:19;5.78;;;2.38;;
37411;SDS011;23278;52.110;6.050;2022-10-30T03:55:49;5.30;;;2.63;;
37411;SDS011;23278;52.110;6.050;2022-10-30T03:58:16;4.68;;;2.65;;
37411;SDS011;23278;52.110;6.050;2022-10-30T04:00:42;5.05;;;2.25;;
37411;SDS011;23278;52.110;6.050;2022-10-30T04:03:08;6.57;;;2.50;;
37411;SDS011;23278;52.110;6.050;2022-10-30T04:05:37;6.13;;;2.30;;
37411;SDS011;23278;52.110;6.050;2022-10-30T04:08:04;7.40;;;2.90;;
37411;SDS011;23278;52.110;6.050;2022-10-30T04:10:35;5.55;;;3.35;;
37411;SDS011;23278;52.110;6.050;2022-10-30T04:13:05;4.93;;;2.90;;
37411;SDS011;23278;52.110;6.050;2022-10-30T04:15:33;5.68;;;3.67;;
37411;SDS011;23278;52.110;6.050;2022-10-30T04:17:59;9.45;;;3.40;;
37411;SDS011;23278;52.110;6.050;2022-10-30T04:20:25;4.40;;;2.70;;
37411;SDS011;23278;52.110;6.050;2022-10-30T04:22:59;8.00;;;3.92;;
37411;SDS011;23278;52.110;6.050;2022-10-30T04:25:27;6.97;;;4.03;;
37411;SDS011;23278;52.110;6.050;2022-10-30T04:27:56;8.38;;;3.95;;
37411;SDS011;23278;52.110;6.050;2022-10-30T04:30:22;7.88;;;3.30;;
37411;SDS011;23278;52.110;6.050;2022-10-30T04:32:55;7.93;;;3.58;;
37411;SDS011;23278;52.110;6.050;2022-10-30T04:35:23;8.02;;;3.67;;
37411;SDS011;23278;52.110;6.050;2022-10-30T04:37:54;17.02;;;4.95;;
37411;SDS011;23278;52.110;6.050;2022-10-30T04:40:22;11.00;;;5.85;;
37411;SDS011;23278;52.110;6.050;2022-10-30T04:42:54;8.73;;;4.55;;
37411;SDS011;23278;52.110;6.050;2022-10-30T04:45:21;9.00;;;3.80;;
37411;SDS011;23278;52.110;6.050;2022-10-30T04:47:47;8.55;;;4.03;;
37411;SDS011;23278;52.110;6.050;2022-10-30T04:50:13;6.97;;;4.20;;
37411;SDS011;23278;52.110;6.050;2022-10-30T04:52:40;5.47;;;2.70;;
37411;SDS011;23278;52.110;6.050;2022-10-30T04:55:06;4.15;;;2.58;;
37411;SDS011;23278;52.110;6.050;2022-10-30T04:57:33;8.07;;;3.03;;
37411;SDS011;23278;52.110;6.050;2022-10-30T05:00:05;9.13;;;4.00;;
37411;SDS011;23278;52.110;6.050;2022-10-30T05:02:35;7.25;;;2.47;;
37411;SDS011;23278;52.110;6.050;2022-10-30T05:05:02;3.97;;;2.58;;
37411;SDS011;23278;52.110;6.050;2022-10-30T05:07:28;4.22;;;3.10;;
37411;SDS011;23278;52.110;6.050;2022-10-30T05:09:54;6.38;;;2.67;;
37411;SDS011;23278;52.110;6.050;2022-10-30T05:12:21;3.72;;;2.60;;
37411;SDS011;23278;52.110;6.050;2022-10-30T05:14:52;5.63;;;2.78;;
37411;SDS011;23278;52.110;6.050;2022-10-30T05:17:18;5.13;;;2.72;;
37411;SDS011;23278;52.110;6.050;2022-10-30T05:19:43;5.15;;;2.53;;
37411;SDS011;23278;52.110;6.050;2022-10-30T05:22:11;4.57;;;2.53;;
37411;SDS011;23278;52.110;6.050;2022-10-30T05:24:37;7.05;;;3.05;;
37411;SDS011;23278;52.110;6.050;2022-10-30T05:27:04;5.82;;;3.00;;
37411;SDS011;23278;52.110;6.050;2022-10-30T05:29:31;8.07;;;2.95;;
37411;SDS011;23278;52.110;6.050;2022-10-30T05:31:57;5.88;;;3.75;;
37411;SDS011;23278;52.110;6.050;2022-10-30T05:34:23;5.70;;;2.25;;
37411;SDS011;23278;52.110;6.050;2022-10-30T05:36:51;5.80;;;2.83;;
37411;SDS011;23278;52.110;6.050;2022-10-30T05:39:19;6.15;;;2.80;;
37411;SDS011;23278;52.110;6.050;2022-10-30T05:41:47;7.63;;;3.13;;
37411;SDS011;23278;52.110;6.050;2022-10-30T05:44:14;8.38;;;3.38;;
37411;SDS011;23278;52.110;6.050;2022-10-30T05:46:43;6.07;;;4.25;;
37411;SDS011;23278;52.110;6.050;2022-10-30T05:49:26;4.20;;;2.88;;
37411;SDS011;23278;52.110;6.050;2022-10-30T05:51:52;6.75;;;2.95;;
37411;SDS011;23278;52.110;6.050;2022-10-30T05:54:18;3.88;;;2.58;;
37411;SDS011;23278;52.110;6.050;2022-10-30T05:56:59;6.40;;;3.25;;
37411;SDS011;23278;52.110;6.050;2022-10-30T05:59:24;7.85;;;3.47;;
37411;SDS011;23278;52.110;6.050;2022-10-30T06:01:50;5.25;;;2.65;;
37411;SDS011;23278;52.110;6.050;2022-10-30T06:04:16;7.15;;;3.15;;
37411;SDS011;23278;52.110;6.050;2022-10-30T06:06:42;5.70;;;2.60;;
37411;SDS011;23278;52.110;6.050;2022-10-30T06:09:08;5.35;;;2.45;;
37411;SDS011;23278;52.110;6.050;2022-10-30T06:12:03;4.30;;;2.25;;
37411;SDS011;23278;52.110;6.050;2022-10-30T06:14:44;4.22;;;2.60;;
37411;SDS011;23278;52.110;6.050;2022-10-30T06:17:11;4.47;;;2.47;;
37411;SDS011;23278;52.110;6.050;2022-10-30T06:19:55;3.08;;;2.08;;
37411;SDS011;23278;52.110;6.050;2022-10-30T06:22:41;6.60;;;2.42;;
37411;SDS011;23278;52.110;6.050;2022-10-30T06:25:17;4.22;;;2.30;;
37411;SDS011;23278;52.110;6.050;2022-10-30T06:27:57;7.03;;;1.98;;
37411;SDS011;23278;52.110;6.050;2022-10-30T06:30:23;6.22;;;3.13;;
37411;SDS011;23278;52.110;6.050;2022-10-30T06:32:54;4.85;;;2.70;;
37411;SDS011;23278;52.110;6.050;2022-10-30T06:35:24;3.38;;;2.33;;
37411;SDS011;23278;52.110;6.050;2022-10-30T06:37:51;6.85;;;2.45;;
37411;SDS011;23278;52.110;6.050;2022-10-30T06:40:19;6.00;;;2.50;;
37411;SDS011;23278;52.110;6.050;2022-10-30T06:43:04;3.33;;;2.70;;
37411;SDS011;23278;52.110;6.050;2022-10-30T06:45:34;9.10;;;3.58;;
37411;SDS011;23278;52.110;6.050;2022-10-30T06:48:00;7.70;;;3.05;;
37411;SDS011;23278;52.110;6.050;2022-10-30T06:50:28;4.85;;;2.63;;
37411;SDS011;23278;52.110;6.050;2022-10-30T06:52:54;3.15;;;1.98;;
37411;SDS011;23278;52.110;6.050;2022-10-30T06:55:20;3.95;;;2.33;;
37411;SDS011;23278;52.110;6.050;2022-10-30T06:57:59;5.95;;;3.85;;
37411;SDS011;23278;52.110;6.050;2022-10-30T07:00:45;6.15;;;2.72;;
37411;SDS011;23278;52.110;6.050;2022-10-30T07:03:32;5.00;;;2.65;;
37411;SDS011;23278;52.110;6.050;2022-10-30T07:05:59;11.68;;;3.45;;
37411;SDS011;23278;52.110;6.050;2022-10-30T07:08:25;6.45;;;3.00;;
37411;SDS011;23278;52.110;6.050;2022-10-30T07:10:51;6.63;;;2.63;;
37411;SDS011;23278;52.110;6.050;2022-10-30T07:13:20;6.03;;;2.80;;
37411;SDS011;23278;52.110;6.050;2022-10-30T07:16:02;6.32;;;3.08;;
37411;SDS011;23278;52.110;6.050;2022-10-30T07:18:33;3.58;;;2.67;;
37411;SDS011;23278;52.110;6.050;2022-10-30T07:21:00;5.32;;;2.45;;
37411;SDS011;23278;52.110;6.050;2022-10-30T07:23:28;5.57;;;2.78;;
37411;SDS011;23278;52.110;6.050;2022-10-30T07:26:03;8.95;;;3.10;;
37411;SDS011;23278;52.110;6.050;2022-10-30T07:28:42;7.72;;;3.30;;
37411;SDS011;23278;52.110;6.050;2022-10-30T07:31:31;5.43;;;3.80;;
37411;SDS011;23278;52.110;6.050;2022-10-30T07:34:26;5.50;;;3.70;;
37411;SDS011;23278;52.110;6.050;2022-10-30T07:37:18;4.97;;;3.38;;
37411;SDS011;23278;52.110;6.050;2022-10-30T07:39:51;7.88;;;3.90;;
37411;SDS011;23278;52.110;6.050;2022-10-30T07:42:37;8.15;;;3.88;;
37411;SDS011;23278;52.110;6.050;2022-10-30T07:45:22;5.43;;;3.80;;
37411;SDS011;23278;52.110;6.050;2022-10-30T07:50:44;6.18;;;3.60;;
37411;SDS011;23278;52.110;6.050;2022-10-30T07:53:10;5.43;;;3.40;;
37411;SDS011;23278;52.110;6.050;2022-10-30T07:55:36;13.95;;;4.07;;
37411;SDS011;23278;52.110;6.050;2022-10-30T07:58:08;7.50;;;3.40;;
37411;SDS011;23278;52.110;6.050;2022-10-30T08:00:52;5.78;;;3.17;;
37411;SDS011;23278;52.110;6.050;2022-10-30T08:03:26;5.40;;;3.28;;
37411;SDS011;23278;52.110;6.050;2022-10-30T08:05:56;5.93;;;2.92;;
37411;SDS011;23278;52.110;6.050;2022-10-30T08:08:28;7.50;;;3.42;;
37411;SDS011;23278;52.110;6.050;2022-10-30T08:11:05;6.07;;;2.78;;
37411;SDS011;23278;52.110;6.050;2022-10-30T08:13:31;10.60;;;3.42;;
37411;SDS011;23278;52.110;6.050;2022-10-30T08:15:57;8.35;;;2.72;;
37411;SDS011;23278;52.110;6.050;2022-10-30T08:18:23;5.10;;;3.47;;
37411;SDS011;23278;52.110;6.050;2022-10-30T08:20:51;7.80;;;3.25;;
37411;SDS011;23278;52.110;6.050;2022-10-30T08:23:17;8.25;;;3.58;;
37411;SDS011;23278;52.110;6.050;2022-10-30T08:25:45;8.15;;;3.35;;
37411;SDS011;23278;52.110;6.050;2022-10-30T08:28:11;6.55;;;3.78;;
37411;SDS011;23278;52.110;6.050;2022-10-30T08:30:39;7.95;;;3.60;;
37411;SDS011;23278;52.110;6.050;2022-10-30T08:33:10;6.13;;;3.33;;
37411;SDS011;23278;52.110;6.050;2022-10-30T08:35:56;10.68;;;3.63;;
37411;SDS011;23278;52.110;6.050;2022-10-30T08:38:24;5.68;;;3.47;;
37411;SDS011;23278;52.110;6.050;2022-10-30T08:41:04;4.85;;;3.28;;
37411;SDS011;23278;52.110;6.050;2022-10-30T08:43:32;8.38;;;3.58;;
37411;SDS011;23278;52.110;6.050;2022-10-30T08:45:59;3.97;;;3.13;;
37411;SDS011;23278;52.110;6.050;2022-10-30T08:48:26;4.47;;;2.47;;
37411;SDS011;23278;52.110;6.050;2022-10-30T08:50:52;8.70;;;3.15;;
37411;SDS011;23278;52.110;6.050;2022-10-30T08:53:27;4.53;;;2.60;;
37411;SDS011;23278;52.110;6.050;2022-10-30T08:55:53;5.15;;;3.22;;
37411;SDS011;23278;52.110;6.050;2022-10-30T08:58:34;4.82;;;2.38;;
37411;SDS011;23278;52.110;6.050;2022-10-30T09:01:01;9.77;;;3.60;;
37411;SDS011;23278;52.110;6.050;2022-10-30T09:04:05;5.47;;;3.13;;
37411;SDS011;23278;52.110;6.050;2022-10-30T09:06:49;5.47;;;3.13;;
37411;SDS011;23278;52.110;6.050;2022-10-30T09:09:38;9.93;;;3.13;;
37411;SDS011;23278;52.110;6.050;2022-10-30T09:12:05;7.53;;;3.53;;
37411;SDS011;23278;52.110;6.050;2022-10-30T09:14:41;6.47;;;3.80;;
37411;SDS011;23278;52.110;6.050;2022-10-30T09:17:09;6.80;;;3.33;;
37411;SDS011;23278;52.110;6.050;2022-10-30T09:19:36;5.60;;;3.03;;
37411;SDS011;23278;52.110;6.050;2022-10-30T09:22:03;5.13;;;3.05;;
37411;SDS011;23278;52.110;6.050;2022-10-30T09:24:30;5.32;;;2.63;;
37411;SDS011;23278;52.110;6.050;2022-10-30T09:27:37;5.22;;;2.85;;
37411;SDS011;23278;52.110;6.050;2022-10-30T09:30:04;7.57;;;4.03;;
37411;SDS011;23278;52.110;6.050;2022-10-30T09:32:35;4.53;;;3.40;;
37411;SDS011;23278;52.110;6.050;2022-10-30T09:35:08;7.85;;;3.85;;
37411;SDS011;23278;52.110;6.050;2022-10-30T09:37:36;6.22;;;3.22;;
37411;SDS011;23278;52.110;6.050;2022-10-30T09:40:12;15.73;;;4.45;;
37411;SDS011;23278;52.110;6.050;2022-10-30T09:43:04;5.25;;;2.80;;
37411;SDS011;23278;52.110;6.050;2022-10-30T09:45:47;6.40;;;2.42;;
37411;SDS011;23278;52.110;6.050;2022-10-30T09:48:53;6.68;;;3.58;;
37411;SDS011;23278;52.110;6.050;2022-10-30T09:51:50;7.88;;;3.13;;
37411;SDS011;23278;52.110;6.050;2022-10-30T09:57:32;5.57;;;2.90;;
37411;SDS011;23278;52.110;6.050;2022-10-30T10:00:19;5.18;;;2.42;;
37411;SDS011;23278;52.110;6.050;2022-10-30T10:03:08;6.43;;;2.58;;
37411;SDS011;23278;52.110;6.050;2022-10-30T10:06:14;6.68;;;2.83;;
37411;SDS011;23278;52.110;6.050;2022-10-30T10:09:02;5.22;;;2.78;;
37411;SDS011;23278;52.110;6.050;2022-10-30T10:11:50;4.57;;;2.75;;
37411;SDS011;23278;52.110;6.050;2022-10-30T10:14:21;7.78;;;2.92;;
37411;SDS011;23278;52.110;6.050;2022-10-30T10:16:54;16.52;;;2.08;;
37411;SDS011;23278;52.110;6.050;2022-10-30T10:19:22;5.63;;;2.90;;
37411;SDS011;23278;52.110;6.050;2022-10-30T10:22:04;8.23;;;3.13;;
37411;SDS011;23278;52.110;6.050;2022-10-30T10:24:42;4.93;;;2.58;;
37411;SDS011;23278;52.110;6.050;2022-10-30T10:32:41;6.13;;;2.60;;
37411;SDS011;23278;52.110;6.050;2022-10-30T10:35:22;7.15;;;2.53;;
37411;SDS011;23278;52.110;6.050;2022-10-30T10:38:14;3.78;;;2.15;;
37411;SDS011;23278;52.110;6.050;2022-10-30T10:40:59;5.28;;;2.63;;
37411;SDS011;23278;52.110;6.050;2022-10-30T10:46:25;6.90;;;3.17;;
37411;SDS011;23278;52.110;6.050;2022-10-30T10:54:43;6.88;;;3.03;;
37411;SDS011;23278;52.110;6.050;2022-10-30T10:57:16;7.53;;;2.33;;
37411;SDS011;23278;52.110;6.050;2022-10-30T10:59:51;7.28;;;2.20;;
37411;SDS011;23278;52.110;6.050;2022-10-30T11:02:36;15.38;;;2.92;;
37411;SDS011;23278;52.110;6.050;2022-10-30T11:05:35;8.70;;;2.77;;
37411;SDS011;23278;52.110;6.050;2022-10-30T11:08:10;9.68;;;3.78;;
37411;SDS011;23278;52.110;6.050;2022-10-30T11:10:42;6.20;;;2.30;;
37411;SDS011;23278;52.110;6.050;2022-10-30T11:13:13;4.93;;;2.35;;
37411;SDS011;23278;52.110;6.050;2022-10-30T11:18:28;4.13;;;2.33;;
37411;SDS011;23278;52.110;6.050;2022-10-30T11:20:59;7.90;;;3.03;;
37411;SDS011;23278;52.110;6.050;2022-10-30T11:25:56;4.65;;;1.88;;
37411;SDS011;23278;52.110;6.050;2022-10-30T11:28:40;11.77;;;2.95;;
37411;SDS011;23278;52.110;6.050;2022-10-30T11:36:43;6.38;;;2.35;;
37411;SDS011;23278;52.110;6.050;2022-10-30T11:39:20;4.85;;;2.15;;
37411;SDS011;23278;52.110;6.050;2022-10-30T11:41:55;7.38;;;2.75;;
37411;SDS011;23278;52.110;6.050;2022-10-30T11:44:42;5.55;;;2.03;;
37411;SDS011;23278;52.110;6.050;2022-10-30T11:47:13;8.77;;;1.88;;
37411;SDS011;23278;52.110;6.050;2022-10-30T11:52:17;6.88;;;2.15;;
37411;SDS011;23278;52.110;6.050;2022-10-30T11:54:46;8.60;;;2.28;;
37411;SDS011;23278;52.110;6.050;2022-10-30T11:57:36;9.43;;;1.98;;
37411;SDS011;23278;52.110;6.050;2022-10-30T12:00:17;12.50;;;2.70;;
37411;SDS011;23278;52.110;6.050;2022-10-30T12:02:51;8.82;;;2.58;;
37411;SDS011;23278;52.110;6.050;2022-10-30T12:10:36;8.35;;;2.25;;
37411;SDS011;23278;52.110;6.050;2022-10-30T12:13:19;6.07;;;1.77;;
37411;SDS011;23278;52.110;6.050;2022-10-30T12:15:47;9.93;;;2.53;;
37411;SDS011;23278;52.110;6.050;2022-10-30T12:18:20;6.18;;;1.65;;
37411;SDS011;23278;52.110;6.050;2022-10-30T12:20:53;10.18;;;2.60;;
37411;SDS011;23278;52.110;6.050;2022-10-30T12:23:22;8.73;;;2.20;;
37411;SDS011;23278;52.110;6.050;2022-10-30T12:25:51;5.65;;;2.03;;
37411;SDS011;23278;52.110;6.050;2022-10-30T12:28:20;14.07;;;3.05;;
37411;SDS011;23278;52.110;6.050;2022-10-30T12:30:51;9.25;;;2.38;;
37411;SDS011;23278;52.110;6.050;2022-10-30T12:33:32;6.60;;;2.33;;
37411;SDS011;23278;52.110;6.050;2022-10-30T12:36:09;8.48;;;2.17;;
37411;SDS011;23278;52.110;6.050;2022-10-30T12:38:41;6.28;;;2.10;;
37411;SDS011;23278;52.110;6.050;2022-10-30T12:41:13;7.47;;;2.45;;
37411;SDS011;23278;52.110;6.050;2022-10-30T12:46:44;5.80;;;2.10;;
37411;SDS011;23278;52.110;6.050;2022-10-30T12:49:19;8.63;;;3.03;;
37411;SDS011;23278;52.110;6.050;2022-10-30T12:54:35;10.02;;;2.38;;
37411;SDS011;23278;52.110;6.050;2022-10-30T12:57:20;7.00;;;2.80;;
37411;SDS011;23278;52.110;6.050;2022-10-30T13:02:49;8.15;;;2.70;;
37411;SDS011;23278;52.110;6.050;2022-10-30T13:05:35;6.40;;;2.20;;
37411;SDS011;23278;52.110;6.050;2022-10-30T13:08:13;5.25;;;2.00;;
37411;SDS011;23278;52.110;6.050;2022-10-30T13:10:44;7.03;;;2.47;;
37411;SDS011;23278;52.110;6.050;2022-10-30T13:13:15;5.95;;;1.70;;
37411;SDS011;23278;52.110;6.050;2022-10-30T13:15:44;5.32;;;1.63;;
37411;SDS011;23278;52.110;6.050;2022-10-30T13:18:25;5.43;;;2.40;;
37411;SDS011;23278;52.110;6.050;2022-10-30T13:29:11;4.90;;;1.70;;
37411;SDS011;23278;52.110;6.050;2022-10-30T13:37:18;7.45;;;2.38;;
37411;SDS011;23278;52.110;6.050;2022-10-30T13:53:41;9.50;;;2.05;;
37411;SDS011;23278;52.110;6.050;2022-10-30T13:56:12;4.43;;;2.13;;
37411;SDS011;23278;52.110;6.050;2022-10-30T14:01:20;6.07;;;2.33;;
37411;SDS011;23278;52.110;6.050;2022-10-30T14:06:46;10.18;;;3.15;;
37411;SDS011;23278;52.110;6.050;2022-10-30T14:09:42;5.32;;;2.45;;
37411;SDS011;23278;52.110;6.050;2022-10-30T14:16:01;6.30;;;2.10;;
37411;SDS011;23278;52.110;6.050;2022-10-30T14:20:39;7.70;;;3.35;;
37411;SDS011;23278;52.110;6.050;2022-10-30T14:23:12;4.32;;;1.75;;
37411;SDS011;23278;52.110;6.050;2022-10-30T14:28:28;5.30;;;1.70;;
37411;SDS011;23278;52.110;6.050;2022-10-30T14:31:05;6.57;;;2.42;;
37411;SDS011;23278;52.110;6.050;2022-10-30T14:38:40;3.13;;;1.23;;
37411;SDS011;23278;52.110;6.050;2022-10-30T14:44:17;5.32;;;1.77;;
37411;SDS011;23278;52.110;6.050;2022-10-30T15:08:03;8.77;;;2.95;;
37411;SDS011;23278;52.110;6.050;2022-10-30T15:10:34;3.67;;;1.30;;
37411;SDS011;23278;52.110;6.050;2022-10-30T15:15:36;6.18;;;1.80;;
37411;SDS011;23278;52.110;6.050;2022-10-30T15:18:23;5.90;;;1.58;;
37411;SDS011;23278;52.110;6.050;2022-10-30T15:20:49;4.82;;;1.35;;
37411;SDS011;23278;52.110;6.050;2022-10-30T15:23:26;2.50;;;1.20;;
37411;SDS011;23278;52.110;6.050;2022-10-30T15:25:54;3.78;;;1.90;;
37411;SDS011;23278;52.110;6.050;2022-10-30T15:28:24;4.28;;;1.33;;
37411;SDS011;23278;52.110;6.050;2022-10-30T15:35:51;4.45;;;2.40;;
37411;SDS011;23278;52.110;6.050;2022-10-30T15:38:17;3.90;;;1.85;;
37411;SDS011;23278;52.110;6.050;2022-10-30T15:40:43;4.55;;;2.05;;
37411;SDS011;23278;52.110;6.050;2022-10-30T15:43:12;4.50;;;1.77;;
37411;SDS011;23278;52.110;6.050;2022-10-30T15:45:41;4.88;;;2.53;;
37411;SDS011;23278;52.110;6.050;2022-10-30T15:48:22;7.45;;;1.85;;
37411;SDS011;23278;52.110;6.050;2022-10-30T15:50:59;7.00;;;2.40;;
37411;SDS011;23278;52.110;6.050;2022-10-30T15:53:44;3.22;;;2.10;;
37411;SDS011;23278;52.110;6.050;2022-10-30T15:58:59;4.72;;;1.90;;
37411;SDS011;23278;52.110;6.050;2022-10-30T16:01:33;7.18;;;2.83;;
37411;SDS011;23278;52.110;6.050;2022-10-30T16:04:03;14.20;;;3.22;;
37411;SDS011;23278;52.110;6.050;2022-10-30T16:06:37;6.88;;;1.83;;
37411;SDS011;23278;52.110;6.050;2022-10-30T16:09:03;2.58;;;1.58;;
37411;SDS011;23278;52.110;6.050;2022-10-30T16:11:29;5.53;;;3.03;;
37411;SDS011;23278;52.110;6.050;2022-10-30T16:13:55;6.30;;;3.55;;
37411;SDS011;23278;52.110;6.050;2022-10-30T16:16:23;7.15;;;3.97;;
37411;SDS011;23278;52.110;6.050;2022-10-30T16:18:52;5.90;;;3.33;;
37411;SDS011;23278;52.110;6.050;2022-10-30T16:21:23;5.35;;;3.03;;
37411;SDS011;23278;52.110;6.050;2022-10-30T16:23:54;5.25;;;2.45;;
37411;SDS011;23278;52.110;6.050;2022-10-30T16:26:23;8.45;;;2.78;;
37411;SDS011;23278;52.110;6.050;2022-10-30T16:28:54;5.95;;;2.55;;
37411;SDS011;23278;52.110;6.050;2022-10-30T16:31:21;9.68;;;3.60;;
37411;SDS011;23278;52.110;6.050;2022-10-30T16:33:49;4.80;;;2.88;;
37411;SDS011;23278;52.110;6.050;2022-10-30T16:36:15;6.07;;;3.05;;
37411;SDS011;23278;52.110;6.050;2022-10-30T16:38:43;6.60;;;2.53;;
37411;SDS011;23278;52.110;6.050;2022-10-30T16:41:11;3.72;;;2.55;;
37411;SDS011;23278;52.110;6.050;2022-10-30T16:43:38;4.60;;;2.67;;
37411;SDS011;23278;52.110;6.050;2022-10-30T16:48:38;7.25;;;3.47;;
37411;SDS011;23278;52.110;6.050;2022-10-30T16:51:12;8.85;;;2.55;;
37411;SDS011;23278;52.110;6.050;2022-10-30T16:53:45;5.50;;;2.57;;
37411;SDS011;23278;52.110;6.050;2022-10-30T16:56:21;9.63;;;3.20;;
37411;SDS011;23278;52.110;6.050;2022-10-30T16:58:49;3.38;;;2.08;;
37411;SDS011;23278;52.110;6.050;2022-10-30T17:01:16;8.85;;;2.38;;
37411;SDS011;23278;52.110;6.050;2022-10-30T17:03:43;6.25;;;3.20;;
37411;SDS011;23278;52.110;6.050;2022-10-30T17:08:51;6.50;;;3.17;;
37411;SDS011;23278;52.110;6.050;2022-10-30T17:11:19;8.82;;;3.08;;
37411;SDS011;23278;52.110;6.050;2022-10-30T17:14:00;12.60;;;4.17;;
37411;SDS011;23278;52.110;6.050;2022-10-30T17:16:33;6.28;;;3.90;;
37411;SDS011;23278;52.110;6.050;2022-10-30T17:22:06;9.80;;;5.53;;
37411;SDS011;23278;52.110;6.050;2022-10-30T17:24:37;12.80;;;5.28;;
37411;SDS011;23278;52.110;6.050;2022-10-30T17:27:04;12.32;;;6.20;;
37411;SDS011;23278;52.110;6.050;2022-10-30T17:32:16;13.85;;;5.85;;
37411;SDS011;23278;52.110;6.050;2022-10-30T17:34:44;23.17;;;7.63;;
37411;SDS011;23278;52.110;6.050;2022-10-30T17:37:11;12.07;;;6.38;;
37411;SDS011;23278;52.110;6.050;2022-10-30T17:39:37;10.65;;;5.80;;
37411;SDS011;23278;52.110;6.050;2022-10-30T17:42:03;8.68;;;5.18;;
37411;SDS011;23278;52.110;6.050;2022-10-30T17:44:33;13.15;;;5.88;;
37411;SDS011;23278;52.110;6.050;2022-10-30T17:47:00;8.93;;;4.15;;
37411;SDS011;23278;52.110;6.050;2022-10-30T17:49:38;7.10;;;5.45;;
37411;SDS011;23278;52.110;6.050;2022-10-30T17:52:04;7.57;;;4.88;;
37411;SDS011;23278;52.110;6.050;2022-10-30T17:54:30;7.53;;;4.07;;
37411;SDS011;23278;52.110;6.050;2022-10-30T17:56:56;10.30;;;4.72;;
37411;SDS011;23278;52.110;6.050;2022-10-30T17:59:22;11.80;;;5.40;;
37411;SDS011;23278;52.110;6.050;2022-10-30T18:01:48;6.90;;;4.15;;